Time,TemperatureF,DewpointF,PressureIn,WindDirection,WindDirectionDegrees,WindSpeedMPH,WindSpeedGustMPH,Humidity,HourlyPrecipIn,Conditions,Clouds,dailyrainin,SoftwareType,DateUTC
2013-03-13 00:03:00,50.0,49.0,29.73,North,-999,-999.0,-999.0,95,0.00,,,0.28,,2013-03-13 04:03:00,
2013-03-13 00:13:00,50.0,49.0,29.73,North,-999,-999.0,-999.0,95,0.00,,,0.28,,2013-03-13 04:13:00,
2013-03-13 00:23:00,50.0,49.0,29.73,North,-999,-999.0,-999.0,95,0.00,,,0.28,,2013-03-13 04:23:00,
2013-03-13 00:32:00,46.0,44.0,29.75,North,-999,-999.0,-999.0,92,0.00,,,0.28,,2013-03-13 04:32:00,
2013-03-13 00:43:00,46.0,44.0,29.75,North,-999,-999.0,-999.0,92,0.00,,,0.28,,2013-03-13 04:43:00,
2013-03-13 00:53:00,44.0,42.0,29.75,North,-999,-999.0,-999.0,92,0.00,,,0.28,,2013-03-13 04:53:00,
2013-03-13 01:02:00,43.0,41.0,29.75,North,-999,-999.0,-999.0,91,0.00,,,0.28,,2013-03-13 05:02:00,
2013-03-13 01:13:00,43.0,41.0,29.75,North,-999,-999.0,-999.0,91,0.00,,,0.28,,2013-03-13 05:13:00,
2013-03-13 01:22:00,43.0,41.0,29.75,North,-999,-999.0,-999.0,91,0.00,,,0.28,,2013-03-13 05:22:00,
2013-03-13 01:32:00,42.0,39.0,29.76,North,-999,-999.0,-999.0,89,0.00,,,0.28,,2013-03-13 05:32:00,
2013-03-13 01:42:00,42.0,39.0,29.76,North,-999,-999.0,-999.0,89,0.00,,,0.28,,2013-03-13 05:42:00,
2013-03-13 01:52:00,42.0,39.0,29.76,North,-999,-999.0,-999.0,89,0.00,,,0.28,,2013-03-13 05:52:00,
2013-03-13 02:02:00,42.0,39.0,29.76,North,-999,-999.0,-999.0,88,0.00,,,0.28,,2013-03-13 06:02:00,
2013-03-13 02:13:00,42.0,39.0,29.76,North,-999,-999.0,-999.0,88,0.00,,,0.28,,2013-03-13 06:13:00,
2013-03-13 02:23:00,42.0,39.0,29.76,North,-999,-999.0,-999.0,88,0.00,,,0.28,,2013-03-13 06:23:00,
2013-03-13 02:32:00,42.0,39.0,29.76,North,-999,-999.0,-999.0,88,0.00,,,0.28,,2013-03-13 06:32:00,
2013-03-13 02:42:00,42.0,39.0,29.76,North,-999,-999.0,-999.0,88,0.00,,,0.28,,2013-03-13 06:42:00,
2013-03-13 02:52:00,40.0,37.0,29.75,North,-999,-999.0,-999.0,88,0.00,,,0.28,,2013-03-13 06:52:00,
2013-03-13 03:03:00,39.0,36.0,29.76,North,-999,-999.0,-999.0,89,0.00,,,0.28,,2013-03-13 07:03:00,
2013-03-13 03:12:00,39.0,36.0,29.76,North,-999,-999.0,-999.0,89,0.00,,,0.28,,2013-03-13 07:12:00,
2013-03-13 03:22:00,39.0,36.0,29.77,North,-999,-999.0,-999.0,88,0.00,,,0.28,,2013-03-13 07:22:00,
2013-03-13 03:33:00,39.0,36.0,29.76,North,-999,-999.0,-999.0,88,0.00,,,0.28,,2013-03-13 07:33:00,
2013-03-13 03:42:00,39.0,36.0,29.76,North,-999,-999.0,-999.0,88,0.00,,,0.28,,2013-03-13 07:42:00,
2013-03-13 03:52:00,39.0,36.0,29.76,North,-999,-999.0,-999.0,88,0.00,,,0.28,,2013-03-13 07:52:00,
2013-03-13 04:03:00,39.0,36.0,29.76,North,-999,-999.0,-999.0,88,0.00,,,0.28,,2013-03-13 08:03:00,
2013-03-13 04:12:00,39.0,36.0,29.76,North,-999,-999.0,-999.0,88,0.00,,,0.28,,2013-03-13 08:12:00,
2013-03-13 04:23:00,38.0,35.0,29.76,North,-999,-999.0,-999.0,88,0.00,,,0.28,,2013-03-13 08:23:00,
2013-03-13 04:32:00,37.0,34.0,29.75,North,-999,-999.0,-999.0,89,0.00,,,0.28,,2013-03-13 08:32:00,
2013-03-13 04:43:00,37.0,34.0,29.75,North,-999,-999.0,-999.0,89,0.00,,,0.28,,2013-03-13 08:43:00,
2013-03-13 04:53:00,37.0,34.0,29.75,North,-999,-999.0,-999.0,88,0.00,,,0.28,,2013-03-13 08:53:00,
2013-03-13 05:02:00,36.0,33.0,29.76,North,-999,-999.0,-999.0,88,0.00,,,0.28,,2013-03-13 09:02:00,
2013-03-13 05:13:00,36.0,33.0,29.76,North,-999,-999.0,-999.0,88,0.00,,,0.28,,2013-03-13 09:13:00,
2013-03-13 05:22:00,36.0,33.0,29.76,North,-999,-999.0,-999.0,89,0.00,,,0.28,,2013-03-13 09:22:00,
2013-03-13 05:32:00,36.0,33.0,29.77,North,-999,-999.0,-999.0,89,0.00,,,0.28,,2013-03-13 09:32:00,
2013-03-13 05:42:00,36.0,33.0,29.77,North,-999,-999.0,-999.0,89,0.00,,,0.28,,2013-03-13 09:42:00,
2013-03-13 05:52:00,35.0,32.0,29.77,North,-999,-999.0,-999.0,89,0.00,,,0.28,,2013-03-13 09:52:00,
2013-03-13 06:02:00,35.0,32.0,29.78,North,-999,-999.0,-999.0,89,0.00,,,0.28,,2013-03-13 10:02:00,
2013-03-13 06:12:00,35.0,32.0,29.78,North,-999,-999.0,-999.0,89,0.00,,,0.28,,2013-03-13 10:12:00,
2013-03-13 06:22:00,34.0,31.0,29.78,North,-999,-999.0,-999.0,90,0.00,,,0.28,,2013-03-13 10:22:00,
2013-03-13 06:32:00,34.0,31.0,29.78,North,-999,-999.0,-999.0,90,0.00,,,0.28,,2013-03-13 10:32:00,
2013-03-13 06:42:00,34.0,31.0,29.78,North,-999,-999.0,-999.0,90,0.00,,,0.28,,2013-03-13 10:42:00,
2013-03-13 06:52:00,34.0,31.0,29.78,North,-999,-999.0,-999.0,90,0.00,,,0.28,,2013-03-13 10:52:00,
2013-03-13 07:02:00,33.0,30.0,29.78,North,-999,-999.0,-999.0,90,0.00,,,0.28,,2013-03-13 11:02:00,
2013-03-13 07:13:00,33.0,30.0,29.78,North,-999,-999.0,-999.0,90,0.00,,,0.28,,2013-03-13 11:13:00,
2013-03-13 07:22:00,33.0,31.0,29.78,North,-999,-999.0,-999.0,91,0.00,,,0.28,,2013-03-13 11:22:00,
2013-03-13 07:32:00,33.0,31.0,29.78,North,-999,-999.0,-999.0,91,0.00,,,0.28,,2013-03-13 11:32:00,
2013-03-13 07:42:00,33.0,31.0,29.78,North,-999,-999.0,-999.0,91,0.00,,,0.28,,2013-03-13 11:42:00,
2013-03-13 07:52:00,32.0,30.0,29.78,North,-999,-999.0,-999.0,91,0.00,,,0.28,,2013-03-13 11:52:00,
2013-03-13 08:02:00,32.0,30.0,29.77,North,-999,-999.0,-999.0,91,0.00,,,0.28,,2013-03-13 12:02:00,
2013-03-13 08:12:00,32.0,30.0,29.77,North,-999,-999.0,-999.0,91,0.00,,,0.28,,2013-03-13 12:12:00,
2013-03-13 08:22:00,33.0,31.0,29.77,North,-999,-999.0,-999.0,91,0.00,,,0.28,,2013-03-13 12:22:00,
2013-03-13 08:32:00,34.0,32.0,29.76,North,-999,-999.0,-999.0,91,0.00,,,0.28,,2013-03-13 12:32:00,
2013-03-13 08:42:00,34.0,32.0,29.76,North,-999,-999.0,-999.0,91,0.00,,,0.28,,2013-03-13 12:42:00,
2013-03-13 08:52:00,34.0,31.0,29.76,North,-999,-999.0,-999.0,88,0.00,,,0.28,,2013-03-13 12:52:00,
2013-03-13 09:02:00,36.0,31.0,29.77,West,275,0.0,5.0,82,0.00,,,0.28,,2013-03-13 13:02:00,
2013-03-13 09:12:00,36.0,31.0,29.77,West,275,0.0,5.0,82,0.00,,,0.28,,2013-03-13 13:12:00,
2013-03-13 09:22:00,36.0,31.0,29.77,West,275,0.0,5.0,82,0.00,,,0.28,,2013-03-13 13:22:00,
2013-03-13 09:33:00,40.0,31.0,29.76,North,-999,-999.0,-999.0,69,0.00,,,0.28,,2013-03-13 13:33:00,
2013-03-13 09:43:00,40.0,31.0,29.76,North,-999,-999.0,-999.0,69,0.00,,,0.28,,2013-03-13 13:43:00,
2013-03-13 09:53:00,41.0,30.0,29.76,North,-999,-999.0,-999.0,65,0.00,,,0.28,,2013-03-13 13:53:00,
2013-03-13 10:03:00,43.0,31.0,29.76,North,-999,-999.0,-999.0,62,0.00,,,0.28,,2013-03-13 14:03:00,
2013-03-13 10:12:00,43.0,31.0,29.76,North,-999,-999.0,-999.0,62,0.00,,,0.28,,2013-03-13 14:12:00,
2013-03-13 10:22:00,43.0,31.0,29.76,North,-999,-999.0,-999.0,62,0.00,,,0.28,,2013-03-13 14:22:00,
2013-03-13 10:33:00,45.0,31.0,29.76,North,-999,-999.0,-999.0,57,0.00,,,0.28,,2013-03-13 14:33:00,
2013-03-13 10:42:00,45.0,31.0,29.76,North,-999,-999.0,-999.0,57,0.00,,,0.28,,2013-03-13 14:42:00,
2013-03-13 10:53:00,44.0,31.0,29.76,North,-999,-999.0,-999.0,60,0.00,,,0.28,,2013-03-13 14:53:00,
2013-03-13 11:03:00,44.0,30.0,29.76,North,-999,-999.0,-999.0,57,0.00,,,0.28,,2013-03-13 15:03:00,
2013-03-13 11:12:00,44.0,30.0,29.76,North,-999,-999.0,-999.0,57,0.00,,,0.28,,2013-03-13 15:12:00,
2013-03-13 11:22:00,45.0,30.0,29.75,North,-999,-999.0,-999.0,56,0.00,,,0.28,,2013-03-13 15:22:00,
2013-03-13 11:32:00,46.0,31.0,29.75,North,-999,-999.0,-999.0,55,0.00,,,0.28,,2013-03-13 15:32:00,
2013-03-13 11:43:00,46.0,31.0,29.75,North,-999,-999.0,-999.0,55,0.00,,,0.28,,2013-03-13 15:43:00,
2013-03-13 11:52:00,46.0,30.0,29.75,North,-999,-999.0,-999.0,54,0.00,,,0.28,,2013-03-13 15:52:00,
2013-03-13 12:03:00,47.0,31.0,29.75,North,-999,-999.0,-999.0,53,0.00,,,0.28,,2013-03-13 16:03:00,
2013-03-13 12:12:00,47.0,31.0,29.75,North,-999,-999.0,-999.0,53,0.00,,,0.28,,2013-03-13 16:12:00,
2013-03-13 12:22:00,47.0,31.0,29.75,North,-999,-999.0,-999.0,53,0.00,,,0.28,,2013-03-13 16:22:00,
2013-03-13 12:32:00,47.0,29.0,29.75,North,-999,-999.0,-999.0,50,0.00,,,0.28,,2013-03-13 16:32:00,
2013-03-13 12:42:00,47.0,29.0,29.75,North,-999,-999.0,-999.0,50,0.00,,,0.28,,2013-03-13 16:42:00,
2013-03-13 12:52:00,48.0,31.0,29.75,WSW,246,3.0,13.0,52,0.00,,,0.28,,2013-03-13 16:52:00,
2013-03-13 13:03:00,48.0,29.0,29.75,West,274,6.0,13.0,47,0.00,,,0.28,,2013-03-13 17:03:00,
2013-03-13 13:12:00,48.0,29.0,29.75,West,274,6.0,13.0,47,0.00,,,0.28,,2013-03-13 17:12:00,
2013-03-13 13:22:00,48.0,28.0,29.75,WSW,240,5.0,13.0,46,0.00,,,0.28,,2013-03-13 17:22:00,
2013-03-13 13:33:00,48.0,29.0,29.74,SSW,204,7.0,15.0,48,0.00,,,0.28,,2013-03-13 17:33:00,
2013-03-13 13:42:00,48.0,29.0,29.74,SSW,204,7.0,15.0,48,0.00,,,0.28,,2013-03-13 17:42:00,
2013-03-13 13:53:00,48.0,29.0,29.75,SSW,195,5.0,12.0,47,0.00,,,0.28,,2013-03-13 17:53:00,
2013-03-13 14:02:00,49.0,30.0,29.74,WSW,238,3.0,10.0,47,0.00,,,0.28,,2013-03-13 18:02:00,
2013-03-13 14:13:00,49.0,30.0,29.74,WSW,238,3.0,10.0,47,0.00,,,0.28,,2013-03-13 18:13:00,
2013-03-13 14:22:00,48.0,27.0,29.74,SW,234,4.0,15.0,44,0.00,,,0.28,,2013-03-13 18:22:00,
2013-03-13 14:33:00,49.0,28.0,29.73,WSW,257,1.0,8.0,44,0.00,,,0.28,,2013-03-13 18:33:00,
2013-03-13 14:42:00,49.0,28.0,29.73,WSW,257,1.0,8.0,44,0.00,,,0.28,,2013-03-13 18:42:00,
2013-03-13 14:52:00,49.0,26.0,29.73,WSW,257,4.0,11.0,41,0.00,,,0.28,,2013-03-13 18:52:00,
2013-03-13 15:03:00,48.0,24.0,29.73,WNW,292,4.0,9.0,39,0.00,,,0.28,,2013-03-13 19:03:00,
2013-03-13 15:12:00,48.0,24.0,29.73,WNW,292,4.0,9.0,39,0.00,,,0.28,,2013-03-13 19:12:00,
2013-03-13 15:22:00,49.0,24.0,29.72,SW,225,4.0,12.0,37,0.00,,,0.28,,2013-03-13 19:22:00,
2013-03-13 15:32:00,50.0,24.0,29.71,NNW,331,1.0,9.0,36,0.00,,,0.28,,2013-03-13 19:32:00,
2013-03-13 15:43:00,50.0,24.0,29.71,NNW,331,1.0,9.0,36,0.00,,,0.28,,2013-03-13 19:43:00,
2013-03-13 15:52:00,49.0,20.0,29.71,NW,315,6.0,14.0,31,0.00,,,0.28,,2013-03-13 19:52:00,
2013-03-13 16:02:00,50.0,21.0,29.71,WSW,243,5.0,12.0,31,0.00,,,0.28,,2013-03-13 20:02:00,
2013-03-13 16:13:00,50.0,21.0,29.71,WSW,243,5.0,12.0,31,0.00,,,0.28,,2013-03-13 20:13:00,
2013-03-13 16:22:00,49.0,20.0,29.71,NNW,330,4.0,15.0,32,0.00,,,0.28,,2013-03-13 20:22:00,
2013-03-13 16:32:00,49.0,17.0,29.71,WNW,285,6.0,14.0,28,0.00,,,0.28,,2013-03-13 20:32:00,
2013-03-13 16:42:00,49.0,17.0,29.71,WNW,285,6.0,14.0,28,0.00,,,0.28,,2013-03-13 20:42:00,
2013-03-13 16:52:00,48.0,17.0,29.71,West,273,4.0,17.0,29,0.00,,,0.28,,2013-03-13 20:52:00,
2013-03-13 17:02:00,47.0,17.0,29.72,North,350,2.0,15.0,30,0.00,,,0.28,,2013-03-13 21:02:00,
2013-03-13 17:12:00,47.0,17.0,29.72,North,350,2.0,15.0,30,0.00,,,0.28,,2013-03-13 21:12:00,
2013-03-13 17:22:00,47.0,16.0,29.72,NW,310,6.0,23.0,29,0.00,,,0.28,,2013-03-13 21:22:00,
2013-03-13 17:33:00,46.0,17.0,29.72,WNW,294,4.0,19.0,31,0.00,,,0.28,,2013-03-13 21:33:00,
2013-03-13 17:42:00,46.0,17.0,29.72,WNW,294,4.0,19.0,31,0.00,,,0.28,,2013-03-13 21:42:00,
2013-03-13 17:52:00,46.0,17.0,29.72,WSW,246,4.0,9.0,31,0.00,,,0.28,,2013-03-13 21:52:00,
2013-03-13 18:02:00,45.0,16.0,29.73,WNW,290,7.0,14.0,31,0.00,,,0.28,,2013-03-13 22:02:00,
2013-03-13 18:12:00,45.0,16.0,29.73,WNW,290,7.0,14.0,31,0.00,,,0.28,,2013-03-13 22:12:00,
2013-03-13 18:22:00,45.0,18.0,29.73,SW,220,6.0,16.0,34,0.00,,,0.28,,2013-03-13 22:22:00,
2013-03-13 18:32:00,44.0,19.0,29.73,WNW,300,3.0,14.0,36,0.00,,,0.22,,2013-03-13 22:32:00,
2013-03-13 18:42:00,44.0,19.0,29.73,WNW,300,3.0,14.0,36,0.00,,,0.22,,2013-03-13 22:42:00,
2013-03-13 18:52:00,43.0,19.0,29.74,WNW,288,2.0,8.0,37,0.00,,,0.22,,2013-03-13 22:52:00,
2013-03-13 19:02:00,43.0,20.0,29.75,WNW,302,4.0,12.0,39,0.00,,,0.22,,2013-03-13 23:02:00,
2013-03-13 19:12:00,43.0,20.0,29.75,WNW,302,4.0,12.0,39,0.00,,,0.22,,2013-03-13 23:12:00,
2013-03-13 19:22:00,41.0,20.0,29.75,NW,326,2.0,8.0,43,0.00,,,0.22,,2013-03-13 23:22:00,
2013-03-13 19:32:00,41.0,20.0,29.75,WNW,298,0.0,8.0,43,0.00,,,0.13,,2013-03-13 23:32:00,
2013-03-13 19:42:00,41.0,20.0,29.75,WNW,298,0.0,8.0,43,0.00,,,0.13,,2013-03-13 23:42:00,
2013-03-13 19:52:00,40.0,19.0,29.75,WNW,298,0.0,6.0,42,0.00,,,0.13,,2013-03-13 23:52:00,
2013-03-13 20:02:00,39.0,20.0,29.76,WNW,284,0.0,3.0,47,0.00,,,0.13,,2013-03-14 00:02:00,
2013-03-13 20:13:00,39.0,20.0,29.76,WNW,284,0.0,3.0,47,0.00,,,0.13,,2013-03-14 00:13:00,
2013-03-13 20:22:00,38.0,19.0,29.77,WNW,284,0.0,4.0,46,0.00,,,0.13,,2013-03-14 00:22:00,
2013-03-13 20:32:00,37.0,18.0,29.77,WNW,283,1.0,5.0,46,0.00,,,0.02,,2013-03-14 00:32:00,
2013-03-13 20:42:00,37.0,18.0,29.77,WNW,283,1.0,5.0,46,0.00,,,0.02,,2013-03-14 00:42:00,
2013-03-13 20:52:00,37.0,20.0,29.77,WNW,284,0.0,0.0,50,0.00,,,0.02,,2013-03-14 00:52:00,
2013-03-13 21:03:00,36.0,19.0,29.78,WNW,284,0.0,0.0,50,0.00,,,0.02,,2013-03-14 01:03:00,
2013-03-13 21:12:00,36.0,19.0,29.78,WNW,284,0.0,0.0,50,0.00,,,0.02,,2013-03-14 01:12:00,
2013-03-13 21:22:00,35.0,19.0,29.78,WNW,284,0.0,0.0,52,0.00,,,0.02,,2013-03-14 01:22:00,
2013-03-13 21:32:00,34.0,20.0,29.78,WNW,284,0.0,0.0,55,0.00,,,0.01,,2013-03-14 01:32:00,
2013-03-13 21:42:00,34.0,20.0,29.78,WNW,284,0.0,0.0,55,0.00,,,0.01,,2013-03-14 01:42:00,
2013-03-13 22:02:00,32.0,19.0,29.78,WNW,284,0.0,0.0,59,0.00,,,0.01,,2013-03-14 02:02:00,
2013-03-13 22:12:00,32.0,19.0,29.78,WNW,284,0.0,0.0,59,0.00,,,0.01,,2013-03-14 02:12:00,
2013-03-13 22:22:00,32.0,20.0,29.78,WNW,284,0.0,0.0,62,0.00,,,0.01,,2013-03-14 02:22:00,
2013-03-13 22:33:00,31.0,21.0,29.78,WNW,284,0.0,0.0,65,0.00,,,0.00,,2013-03-14 02:33:00,
2013-03-13 22:42:00,31.0,21.0,29.78,WNW,284,0.0,0.0,65,0.00,,,0.00,,2013-03-14 02:42:00,
2013-03-13 22:51:00,31.0,21.0,29.78,WNW,284,0.0,0.0,65,0.00,,,0.00,,2013-03-14 02:51:00,
2013-03-13 23:02:00,30.0,21.0,29.78,WNW,284,0.0,0.0,68,0.00,,,0.00,,2013-03-14 03:02:00,
2013-03-13 23:12:00,30.0,21.0,29.78,WNW,284,0.0,0.0,68,0.00,,,0.00,,2013-03-14 03:12:00,
2013-03-13 23:23:00,30.0,21.0,29.78,WNW,284,0.0,0.0,68,0.00,,,0.00,,2013-03-14 03:23:00,
2013-03-13 23:32:00,29.0,20.0,29.78,WNW,284,0.0,0.0,69,0.00,,,0.00,,2013-03-14 03:32:00,
2013-03-13 23:42:00,29.0,20.0,29.78,WNW,284,0.0,0.0,69,0.00,,,0.00,,2013-03-14 03:42:00,
2013-03-13 23:52:00,29.0,20.0,29.78,WNW,284,0.0,0.0,69,0.00,,,0.00,,2013-03-14 03:52:00,